x

San Clemente Basin - 27nm Se Of San Clemente Is, Ca (46086) Wave Buoy

3:50am - Fri 28th Apr 2017 All times are PDT. -7 hours from GMT.

  • Sig Wave height 9.2ft
  • Swell Direction
  • Peak Period 10s
  • Average Period 7s
  • Wind
    22mph, 27mph gusts
  • Sea Temp 62°f
  • Air Temp 61°f
  • Sea Pressure 1007.1mb
  • San Clemente Basin - 27nm Se Of San Clemente Is, Ca
  • San Clemente Basin - 27nm Se Of San Clemente Is, Ca

More Historic Weather Station data

Upgrade to MSW Pro to gain access to the past 30 days of data for over 8000 Wavebouys and Weather Stations around the globe.

Join Pro

Comparision Forecast

View Surf forecast
   
Fri 04/28 3:50am 9ft 10s 7s 22 27 mph 1007.1mb 62f 61f
2:50am 10ft 10s 7s 22 27 mph 1006.9mb 62f 61f
1:50am 11ft 10s 7s 20 27 mph 1007.5mb 62f 62f
12:50am 9.5ft 9s 7s 13 16 mph 1007.8mb 62f 62f
Thu 04/27 11:50pm 9.5ft 10s 7s 16 22 mph 1008mb 62f 63f
10:50pm 10ft 9s 7s 18 22 mph 1007.7mb 63f 62f
9:50pm 9ft 10s 7s 22 25 mph 1008mb 63f 62f
8:50pm 9ft 9s 7s 20 22 mph 1008mb 63f 62f
7:50pm 9ft 8s 7s 18 22 mph 1007.7mb 63f 61f
6:50pm 8ft 9s 7s 18 22 mph 1008.1mb 63f 61f
4:50pm 9ft 9s 7s 20 22 mph 1008.3mb 63f 61f
3:50pm 8ft 10s 7s 20 25 mph 1008.5mb 63f 60f
2:50pm 8ft 9s 7s 20 25 mph 1009.3mb 63f 60f
1:50pm 8ft 10s 7s 18 20 mph 1009.5mb 63f 59f
12:50pm 8ft 9s 7s 18 22 mph 1010.1mb 62f 59f
11:50am 9ft 9s 7s 18 20 mph 1010.6mb 62f 59f
10:50am 8.5ft 9s 7s 18 20 mph 1010.6mb 62f 59f
9:50am 8ft 8s 7s 13 18 mph 1010.9mb 62f 59f
8:50am 9.5ft 9s 7s 13 16 mph 1010.5mb 62f 59f
7:50am 9.5ft 9s 7s 16 18 mph 1010.6mb 62f 59f
6:50am 9ft 9s 7s 20 25 mph 1010mb 63f 58f
5:50am 11ft 8s 7s 20 25 mph 1009.5mb 63f 59f
4:50am 10.5ft 9s 7s 20 25 mph 1009.8mb 62f 59f
3:50am 10.5ft 9s 7s 22 27 mph 1010mb 62f 59f
2:50am 11ft 9s 7s 22 29 mph 1010.2mb 62f 59f
1:50am 9ft 8s 7s 25 29 mph 1010.4mb 62f 59f
12:50am 9.5ft 9s 7s 18 22 mph 1010.9mb 62f 60f
Wed 04/26 11:50pm 8ft 9s 7s 20 25 mph 1011.2mb 62f 60f
10:50pm 8ft 9s 7s 20 25 mph 1011mb 63f 60f
9:50pm 8ft 9s 7s 18 20 mph 1011.6mb 63f 60f
8:50pm 7.5ft 9s 7s 16 20 mph 1011.3mb 63f 62f
7:50pm 7ft 9s 7s 11 13 mph 1011.2mb 63f 61f
6:50pm 7.5ft 9s 7s 13 16 mph 1011.1mb 63f 62f
4:50pm 7ft 9s 7s 18 20 mph 1011.6mb 63f 61f
3:50pm 7ft 9s 7s 16 18 mph 1012.1mb 63f 61f
2:50pm 7.5ft 8s 7s 16 20 mph 1012.6mb 63f 60f
1:50pm 7.5ft 8s 7s 11 13 mph 1013mb 63f 60f
12:50pm 7.5ft 8s 7s 13 16 mph 1013.7mb 63f 61f
11:50am 7.5ft 8s 7s 7 9 mph 1013.2mb 63f 61f
10:50am 7.5ft 9s 7s 9 11 mph 1014.2mb 63f 61f
9:50am 8ft 9s 8s 9 11 mph 1013.5mb 62f 60f
8:50am 7.5ft 9s 7s 9 11 mph 1012.8mb 62f 60f
7:50am 8.5ft 10s 8s 13 16 mph 1012.4mb 62f 60f
5:50am 9ft 9s 8s 4 9 mph 1012mb 62f 61f
4:50am 9.5ft 9s 8s 7 9 mph 1011.8mb 62f 61f
3:50am 9.5ft 10s 8s 11 13 mph 1012mb 62f 60f
2:50am 9ft 8s 7s 11 13 mph 1011.8mb 62f 60f
1:50am 9ft 8s 7s 11 13 mph 1012.4mb 62f 60f
12:50am 9ft 9s 7s 13 18 mph 1012.8mb 62f 60f
Tue 04/25 11:50pm 9ft 9s 7s 16 20 mph 1013mb 62f 60f
10:50pm 9.5ft 8s 7s 18 20 mph 1013mb 62f 60f
9:50pm 10ft 9s 7s 18 20 mph 1013.1mb 62f 60f
8:50pm 9ft 9s 7s 18 22 mph 1013.1mb 62f 60f
7:50pm 9ft 9s 7s 18 20 mph 1012.4mb 62f 60f
6:50pm 9.5ft 9s 7s 18 22 mph 1012.2mb 62f 60f
5:50pm 9ft 9s 7s 20 25 mph 1012.5mb 62f 59f
4:50pm 9.5ft 9s 7s 22 29 mph 1012.6mb 62f 60f
3:50pm 10ft 9s 7s 22 29 mph 1012.8mb 62f 59f
2:50pm 9ft 9s 7s 20 22 mph 1013.1mb 62f 59f
1:50pm 9ft 9s 7s 20 25 mph 1013.7mb 62f 59f
12:50pm 10ft 8s 7s 20 25 mph 1013.9mb 62f 59f
11:50am 10.5ft 9s 7s 20 25 mph 1014.2mb 62f 59f
10:50am 11ft 9s 7s 18 22 mph 1014mb 61f 59f
9:50am 10ft 8s 7s 18 22 mph 1013.7mb 61f 59f
8:50am 10ft 9s 7s 22 27 mph 1013.1mb 61f 58f
7:50am 10ft 9s 7s 27 31 mph 1012.4mb 62f 58f
6:50am 10.5ft 9s 7s 27 31 mph 1011.4mb 62f 59f
5:50am 11.5ft 10s 7s 25 34 mph 1011.1mb 62f 59f
4:50am 11ft 9s 7s 25 31 mph 1011.1mb 62f 59f
3:50am 11.5ft 10s  -  29 34 mph 1010.6mb 62f 59f
2:50am 11ft 9s 7s 27 31 mph 1011.4mb 62f 59f
1:50am 11ft 9s 7s 29 36 mph 1011.7mb 62f 59f
12:50am 11.5ft 9s 7s 29 34 mph 1011.9mb 62f 59f
Mon 04/24 11:50pm 11ft 9s 7s 22 29 mph 1012.1mb 62f 59f
10:50pm 11ft 9s 7s 27 34 mph 1012.6mb 62f 59f
9:50pm 10.5ft 9s 7s 25 31 mph 1012.6mb 62f 59f
8:50pm 10ft 13s 7s 25 31 mph 1012.6mb 62f 59f
7:50pm 10ft 14s 7s 22 27 mph 1012.2mb 62f 60f
6:50pm 10ft 9s 7s 27 34 mph 1011.9mb 62f 60f
5:50pm 9ft 14s 7s 25 29 mph 1012.3mb 62f 60f
4:50pm 9ft 14s 7s 20 25 mph 1012.8mb 62f 60f
3:50pm 9ft 14s 7s 22 25 mph 1013.1mb 62f 59f
2:50pm 9ft 9s 7s 20 25 mph 1013.9mb 62f 59f